sensor_id;sensor_type;location;lat;lon;timestamp;P1;durP1;ratioP1;P2;durP2;ratioP2
462;SDS011;218;51.902;9.542;2022-09-28T00:02:07;4.47;;;4.17;;
462;SDS011;218;51.902;9.542;2022-09-28T00:04:34;4.87;;;4.57;;
462;SDS011;218;51.902;9.542;2022-09-28T00:07:02;4.80;;;4.40;;
462;SDS011;218;51.902;9.542;2022-09-28T00:09:30;4.80;;;4.47;;
462;SDS011;218;51.902;9.542;2022-09-28T00:11:58;5.23;;;4.80;;
462;SDS011;218;51.902;9.542;2022-09-28T00:14:25;5.30;;;5.00;;
462;SDS011;218;51.902;9.542;2022-09-28T00:16:52;5.47;;;5.07;;
462;SDS011;218;51.902;9.542;2022-09-28T00:19:33;5.00;;;4.70;;
462;SDS011;218;51.902;9.542;2022-09-28T00:22:13;5.43;;;5.03;;
462;SDS011;218;51.902;9.542;2022-09-28T00:24:42;5.00;;;4.70;;
462;SDS011;218;51.902;9.542;2022-09-28T00:27:09;4.97;;;4.57;;
462;SDS011;218;51.902;9.542;2022-09-28T00:29:37;4.97;;;4.67;;
462;SDS011;218;51.902;9.542;2022-09-28T00:32:05;5.17;;;4.70;;
462;SDS011;218;51.902;9.542;2022-09-28T00:34:33;4.73;;;4.50;;
462;SDS011;218;51.902;9.542;2022-09-28T00:37:01;5.33;;;5.03;;
462;SDS011;218;51.902;9.542;2022-09-28T00:39:29;4.87;;;4.57;;
462;SDS011;218;51.902;9.542;2022-09-28T00:42:10;4.87;;;4.47;;
462;SDS011;218;51.902;9.542;2022-09-28T00:44:42;4.07;;;3.87;;
462;SDS011;218;51.902;9.542;2022-09-28T00:47:16;4.97;;;4.60;;
462;SDS011;218;51.902;9.542;2022-09-28T00:49:47;5.20;;;4.90;;
462;SDS011;218;51.902;9.542;2022-09-28T00:52:15;4.97;;;4.50;;
462;SDS011;218;51.902;9.542;2022-09-28T00:54:44;4.60;;;4.20;;
462;SDS011;218;51.902;9.542;2022-09-28T00:57:14;4.30;;;4.00;;
462;SDS011;218;51.902;9.542;2022-09-28T00:59:42;4.90;;;4.60;;
462;SDS011;218;51.902;9.542;2022-09-28T01:02:09;6.57;;;4.90;;
462;SDS011;218;51.902;9.542;2022-09-28T01:04:37;5.53;;;5.13;;
462;SDS011;218;51.902;9.542;2022-09-28T01:07:04;5.60;;;5.17;;
462;SDS011;218;51.902;9.542;2022-09-28T01:09:33;4.67;;;4.37;;
462;SDS011;218;51.902;9.542;2022-09-28T01:12:02;5.10;;;4.70;;
462;SDS011;218;51.902;9.542;2022-09-28T01:14:30;4.80;;;4.50;;
462;SDS011;218;51.902;9.542;2022-09-28T01:17:00;5.30;;;4.53;;
462;SDS011;218;51.902;9.542;2022-09-28T01:19:46;4.13;;;3.93;;
462;SDS011;218;51.902;9.542;2022-09-28T01:22:24;4.57;;;4.17;;
462;SDS011;218;51.902;9.542;2022-09-28T01:24:55;5.33;;;5.03;;
462;SDS011;218;51.902;9.542;2022-09-28T01:27:25;4.93;;;4.50;;
462;SDS011;218;51.902;9.542;2022-09-28T01:29:55;4.73;;;3.90;;
462;SDS011;218;51.902;9.542;2022-09-28T01:32:31;4.20;;;4.00;;
462;SDS011;218;51.902;9.542;2022-09-28T01:35:04;3.77;;;3.53;;
462;SDS011;218;51.902;9.542;2022-09-28T01:37:34;4.53;;;4.33;;
462;SDS011;218;51.902;9.542;2022-09-28T01:40:03;5.60;;;5.20;;
462;SDS011;218;51.902;9.542;2022-09-28T01:42:33;4.27;;;4.07;;
462;SDS011;218;51.902;9.542;2022-09-28T01:45:04;4.40;;;4.10;;
462;SDS011;218;51.902;9.542;2022-09-28T01:47:33;4.30;;;4.00;;
462;SDS011;218;51.902;9.542;2022-09-28T01:50:03;4.07;;;3.80;;
462;SDS011;218;51.902;9.542;2022-09-28T01:52:33;6.60;;;4.70;;
462;SDS011;218;51.902;9.542;2022-09-28T01:55:05;4.87;;;4.47;;
462;SDS011;218;51.902;9.542;2022-09-28T01:57:36;4.70;;;4.20;;
462;SDS011;218;51.902;9.542;2022-09-28T02:00:05;4.77;;;4.50;;
462;SDS011;218;51.902;9.542;2022-09-28T02:02:35;4.20;;;3.90;;
462;SDS011;218;51.902;9.542;2022-09-28T02:05:06;4.97;;;4.57;;
462;SDS011;218;51.902;9.542;2022-09-28T02:07:36;5.00;;;4.70;;
462;SDS011;218;51.902;9.542;2022-09-28T02:10:05;4.03;;;3.83;;
462;SDS011;218;51.902;9.542;2022-09-28T02:12:36;4.80;;;4.50;;
462;SDS011;218;51.902;9.542;2022-09-28T02:15:06;5.23;;;4.90;;
462;SDS011;218;51.902;9.542;2022-09-28T02:17:37;4.90;;;4.50;;
462;SDS011;218;51.902;9.542;2022-09-28T02:20:16;4.60;;;4.30;;
462;SDS011;218;51.902;9.542;2022-09-28T02:22:44;6.27;;;5.23;;
462;SDS011;218;51.902;9.542;2022-09-28T02:25:16;5.27;;;4.97;;
462;SDS011;218;51.902;9.542;2022-09-28T02:27:49;4.93;;;4.60;;
462;SDS011;218;51.902;9.542;2022-09-28T02:30:18;5.23;;;4.83;;
462;SDS011;218;51.902;9.542;2022-09-28T02:32:46;5.27;;;4.90;;
462;SDS011;218;51.902;9.542;2022-09-28T02:35:15;7.97;;;4.97;;
462;SDS011;218;51.902;9.542;2022-09-28T02:37:43;5.73;;;5.27;;
462;SDS011;218;51.902;9.542;2022-09-28T02:40:12;5.50;;;5.20;;
462;SDS011;218;51.902;9.542;2022-09-28T02:42:42;5.57;;;5.17;;
462;SDS011;218;51.902;9.542;2022-09-28T02:45:15;5.60;;;5.20;;
462;SDS011;218;51.902;9.542;2022-09-28T02:47:53;5.90;;;5.40;;
462;SDS011;218;51.902;9.542;2022-09-28T02:50:25;5.17;;;4.87;;
462;SDS011;218;51.902;9.542;2022-09-28T02:53:03;5.80;;;4.93;;
462;SDS011;218;51.902;9.542;2022-09-28T02:55:38;5.13;;;4.73;;
462;SDS011;218;51.902;9.542;2022-09-28T02:58:17;7.00;;;5.83;;
462;SDS011;218;51.902;9.542;2022-09-28T03:00:48;5.70;;;5.30;;
462;SDS011;218;51.902;9.542;2022-09-28T03:03:19;4.97;;;4.67;;
462;SDS011;218;51.902;9.542;2022-09-28T03:05:51;6.73;;;6.20;;
462;SDS011;218;51.902;9.542;2022-09-28T03:08:22;5.70;;;5.20;;
462;SDS011;218;51.902;9.542;2022-09-28T03:10:52;5.40;;;5.03;;
462;SDS011;218;51.902;9.542;2022-09-28T03:13:22;6.03;;;5.63;;
462;SDS011;218;51.902;9.542;2022-09-28T03:15:51;5.70;;;5.30;;
462;SDS011;218;51.902;9.542;2022-09-28T03:18:18;6.00;;;5.60;;
462;SDS011;218;51.902;9.542;2022-09-28T03:20:46;5.37;;;5.07;;
462;SDS011;218;51.902;9.542;2022-09-28T03:23:14;5.30;;;5.00;;
462;SDS011;218;51.902;9.542;2022-09-28T03:25:41;5.97;;;5.57;;
462;SDS011;218;51.902;9.542;2022-09-28T03:28:08;5.37;;;5.07;;
462;SDS011;218;51.902;9.542;2022-09-28T03:30:36;6.57;;;6.17;;
462;SDS011;218;51.902;9.542;2022-09-28T03:33:04;6.00;;;5.60;;
462;SDS011;218;51.902;9.542;2022-09-28T03:35:32;6.50;;;6.10;;
462;SDS011;218;51.902;9.542;2022-09-28T03:37:59;6.47;;;5.97;;
462;SDS011;218;51.902;9.542;2022-09-28T03:40:26;6.10;;;5.70;;
462;SDS011;218;51.902;9.542;2022-09-28T03:42:53;6.57;;;6.07;;
462;SDS011;218;51.902;9.542;2022-09-28T03:45:21;6.10;;;5.63;;
462;SDS011;218;51.902;9.542;2022-09-28T03:47:48;5.83;;;5.43;;
462;SDS011;218;51.902;9.542;2022-09-28T03:50:16;5.60;;;5.23;;
462;SDS011;218;51.902;9.542;2022-09-28T03:53:09;5.03;;;4.57;;
462;SDS011;218;51.902;9.542;2022-09-28T03:55:47;7.40;;;6.63;;
462;SDS011;218;51.902;9.542;2022-09-28T03:58:14;5.90;;;5.40;;
462;SDS011;218;51.902;9.542;2022-09-28T04:00:42;5.30;;;4.90;;
462;SDS011;218;51.902;9.542;2022-09-28T04:03:09;5.23;;;4.83;;
462;SDS011;218;51.902;9.542;2022-09-28T04:05:38;5.17;;;4.77;;
462;SDS011;218;51.902;9.542;2022-09-28T04:08:05;5.87;;;5.47;;
462;SDS011;218;51.902;9.542;2022-09-28T04:10:32;5.33;;;5.00;;
462;SDS011;218;51.902;9.542;2022-09-28T04:12:59;4.60;;;4.30;;
462;SDS011;218;51.902;9.542;2022-09-28T04:15:27;5.70;;;5.20;;
462;SDS011;218;51.902;9.542;2022-09-28T04:17:54;5.37;;;4.97;;
462;SDS011;218;51.902;9.542;2022-09-28T04:20:21;4.90;;;4.60;;
462;SDS011;218;51.902;9.542;2022-09-28T04:22:50;5.27;;;4.97;;
462;SDS011;218;51.902;9.542;2022-09-28T04:25:17;5.13;;;4.83;;
462;SDS011;218;51.902;9.542;2022-09-28T04:27:44;5.53;;;5.13;;
462;SDS011;218;51.902;9.542;2022-09-28T04:30:29;5.30;;;4.63;;
462;SDS011;218;51.902;9.542;2022-09-28T04:32:56;4.20;;;3.90;;
462;SDS011;218;51.902;9.542;2022-09-28T04:35:23;4.43;;;4.20;;
462;SDS011;218;51.902;9.542;2022-09-28T04:37:52;4.87;;;4.57;;
462;SDS011;218;51.902;9.542;2022-09-28T04:40:19;4.97;;;4.60;;
462;SDS011;218;51.902;9.542;2022-09-28T04:42:51;4.67;;;4.37;;
462;SDS011;218;51.902;9.542;2022-09-28T04:45:19;4.70;;;4.40;;
462;SDS011;218;51.902;9.542;2022-09-28T04:47:46;4.13;;;3.83;;
462;SDS011;218;51.902;9.542;2022-09-28T04:50:13;4.00;;;3.80;;
462;SDS011;218;51.902;9.542;2022-09-28T04:52:40;4.33;;;4.13;;
462;SDS011;218;51.902;9.542;2022-09-28T04:55:10;5.03;;;4.73;;
462;SDS011;218;51.902;9.542;2022-09-28T04:57:37;4.77;;;4.47;;
462;SDS011;218;51.902;9.542;2022-09-28T05:00:05;5.20;;;4.80;;
462;SDS011;218;51.902;9.542;2022-09-28T05:02:32;5.03;;;4.73;;
462;SDS011;218;51.902;9.542;2022-09-28T05:05:00;4.70;;;4.40;;
462;SDS011;218;51.902;9.542;2022-09-28T05:07:27;5.00;;;4.70;;
462;SDS011;218;51.902;9.542;2022-09-28T05:09:55;4.80;;;4.50;;
462;SDS011;218;51.902;9.542;2022-09-28T05:12:23;4.77;;;4.17;;
462;SDS011;218;51.902;9.542;2022-09-28T05:14:51;4.67;;;4.37;;
462;SDS011;218;51.902;9.542;2022-09-28T05:17:18;4.67;;;4.30;;
462;SDS011;218;51.902;9.542;2022-09-28T05:19:45;4.77;;;4.47;;
462;SDS011;218;51.902;9.542;2022-09-28T05:22:12;5.20;;;4.80;;
462;SDS011;218;51.902;9.542;2022-09-28T05:24:40;3.60;;;3.40;;
462;SDS011;218;51.902;9.542;2022-09-28T05:27:07;3.67;;;3.47;;
462;SDS011;218;51.902;9.542;2022-09-28T05:29:36;3.60;;;3.50;;
462;SDS011;218;51.902;9.542;2022-09-28T05:32:03;3.27;;;3.07;;
462;SDS011;218;51.902;9.542;2022-09-28T05:34:34;4.40;;;4.00;;
462;SDS011;218;51.902;9.542;2022-09-28T05:37:01;4.40;;;4.10;;
462;SDS011;218;51.902;9.542;2022-09-28T05:39:28;4.00;;;3.80;;
462;SDS011;218;51.902;9.542;2022-09-28T05:41:55;4.20;;;3.80;;
462;SDS011;218;51.902;9.542;2022-09-28T05:44:23;4.00;;;3.80;;
462;SDS011;218;51.902;9.542;2022-09-28T05:46:52;4.27;;;3.87;;
462;SDS011;218;51.902;9.542;2022-09-28T05:49:20;5.00;;;4.60;;
462;SDS011;218;51.902;9.542;2022-09-28T05:51:47;5.90;;;5.50;;
462;SDS011;218;51.902;9.542;2022-09-28T05:54:14;6.17;;;5.77;;
462;SDS011;218;51.902;9.542;2022-09-28T05:56:41;5.20;;;4.80;;
462;SDS011;218;51.902;9.542;2022-09-28T05:59:08;5.37;;;5.03;;
462;SDS011;218;51.902;9.542;2022-09-28T06:01:36;5.27;;;4.87;;
462;SDS011;218;51.902;9.542;2022-09-28T06:04:05;5.80;;;5.40;;
462;SDS011;218;51.902;9.542;2022-09-28T06:06:33;5.60;;;5.30;;
462;SDS011;218;51.902;9.542;2022-09-28T06:09:00;6.33;;;5.83;;
462;SDS011;218;51.902;9.542;2022-09-28T06:11:28;6.20;;;5.80;;
462;SDS011;218;51.902;9.542;2022-09-28T06:13:55;6.40;;;6.00;;
462;SDS011;218;51.902;9.542;2022-09-28T06:16:22;7.00;;;6.47;;
462;SDS011;218;51.902;9.542;2022-09-28T06:18:50;7.43;;;7.03;;
462;SDS011;218;51.902;9.542;2022-09-28T06:21:18;7.40;;;6.90;;
462;SDS011;218;51.902;9.542;2022-09-28T06:24:03;5.77;;;5.47;;
462;SDS011;218;51.902;9.542;2022-09-28T06:26:31;6.57;;;6.17;;
462;SDS011;218;51.902;9.542;2022-09-28T06:28:58;7.70;;;7.03;;
462;SDS011;218;51.902;9.542;2022-09-28T06:31:25;6.17;;;5.67;;
462;SDS011;218;51.902;9.542;2022-09-28T06:33:54;6.50;;;6.00;;
462;SDS011;218;51.902;9.542;2022-09-28T06:36:23;7.20;;;6.70;;
462;SDS011;218;51.902;9.542;2022-09-28T06:38:50;6.23;;;5.80;;
462;SDS011;218;51.902;9.542;2022-09-28T06:41:17;7.30;;;6.70;;
462;SDS011;218;51.902;9.542;2022-09-28T06:43:46;8.50;;;7.40;;
462;SDS011;218;51.902;9.542;2022-09-28T06:46:13;7.27;;;6.60;;
462;SDS011;218;51.902;9.542;2022-09-28T06:48:40;8.87;;;8.10;;
462;SDS011;218;51.902;9.542;2022-09-28T06:51:09;7.87;;;7.20;;
462;SDS011;218;51.902;9.542;2022-09-28T06:53:37;8.00;;;7.50;;
462;SDS011;218;51.902;9.542;2022-09-28T06:56:06;8.03;;;7.47;;
462;SDS011;218;51.902;9.542;2022-09-28T06:58:34;7.13;;;6.63;;
462;SDS011;218;51.902;9.542;2022-09-28T07:01:01;8.17;;;7.43;;
462;SDS011;218;51.902;9.542;2022-09-28T07:03:29;7.63;;;6.93;;
462;SDS011;218;51.902;9.542;2022-09-28T07:05:57;8.97;;;8.17;;
462;SDS011;218;51.902;9.542;2022-09-28T07:08:25;8.70;;;7.80;;
462;SDS011;218;51.902;9.542;2022-09-28T07:10:56;7.90;;;7.20;;
462;SDS011;218;51.902;9.542;2022-09-28T07:13:26;7.37;;;6.77;;
462;SDS011;218;51.902;9.542;2022-09-28T07:15:53;7.57;;;6.97;;
462;SDS011;218;51.902;9.542;2022-09-28T07:18:21;9.30;;;8.63;;
462;SDS011;218;51.902;9.542;2022-09-28T07:20:49;9.80;;;8.97;;
462;SDS011;218;51.902;9.542;2022-09-28T07:23:16;10.00;;;9.10;;
462;SDS011;218;51.902;9.542;2022-09-28T07:25:44;9.40;;;8.60;;
462;SDS011;218;51.902;9.542;2022-09-28T07:28:15;7.77;;;7.03;;
462;SDS011;218;51.902;9.542;2022-09-28T07:30:42;9.63;;;8.60;;
462;SDS011;218;51.902;9.542;2022-09-28T07:33:10;8.97;;;8.17;;
462;SDS011;218;51.902;9.542;2022-09-28T07:35:38;8.40;;;7.70;;
462;SDS011;218;51.902;9.542;2022-09-28T07:38:07;8.80;;;8.00;;
462;SDS011;218;51.902;9.542;2022-09-28T07:40:34;9.50;;;8.70;;
462;SDS011;218;51.902;9.542;2022-09-28T07:43:21;10.23;;;9.33;;
462;SDS011;218;51.902;9.542;2022-09-28T07:45:49;9.57;;;8.50;;
462;SDS011;218;51.902;9.542;2022-09-28T07:48:16;9.63;;;8.80;;
462;SDS011;218;51.902;9.542;2022-09-28T07:50:45;10.33;;;9.43;;
462;SDS011;218;51.902;9.542;2022-09-28T07:53:15;9.70;;;8.67;;
462;SDS011;218;51.902;9.542;2022-09-28T07:55:43;10.07;;;8.73;;
462;SDS011;218;51.902;9.542;2022-09-28T07:58:11;9.87;;;8.67;;
462;SDS011;218;51.902;9.542;2022-09-28T08:00:40;10.30;;;9.30;;
462;SDS011;218;51.902;9.542;2022-09-28T08:03:11;11.23;;;10.23;;
462;SDS011;218;51.902;9.542;2022-09-28T08:05:38;9.10;;;8.27;;
462;SDS011;218;51.902;9.542;2022-09-28T08:08:07;9.47;;;8.63;;
462;SDS011;218;51.902;9.542;2022-09-28T08:10:34;9.97;;;9.07;;
462;SDS011;218;51.902;9.542;2022-09-28T08:13:01;9.53;;;8.57;;
462;SDS011;218;51.902;9.542;2022-09-28T08:15:30;11.20;;;9.00;;
462;SDS011;218;51.902;9.542;2022-09-28T08:18:02;10.23;;;9.23;;
462;SDS011;218;51.902;9.542;2022-09-28T08:20:30;11.00;;;10.00;;
462;SDS011;218;51.902;9.542;2022-09-28T08:23:15;10.37;;;9.50;;
462;SDS011;218;51.902;9.542;2022-09-28T08:25:45;9.20;;;8.40;;
462;SDS011;218;51.902;9.542;2022-09-28T08:28:13;10.13;;;9.17;;
462;SDS011;218;51.902;9.542;2022-09-28T08:30:41;9.23;;;8.47;;
462;SDS011;218;51.902;9.542;2022-09-28T08:33:11;9.57;;;8.77;;
462;SDS011;218;51.902;9.542;2022-09-28T08:35:42;9.33;;;8.57;;
462;SDS011;218;51.902;9.542;2022-09-28T08:38:30;12.30;;;11.30;;
462;SDS011;218;51.902;9.542;2022-09-28T08:41:01;11.30;;;10.37;;
462;SDS011;218;51.902;9.542;2022-09-28T08:43:42;11.20;;;10.23;;
462;SDS011;218;51.902;9.542;2022-09-28T08:46:11;10.60;;;9.57;;
462;SDS011;218;51.902;9.542;2022-09-28T08:48:43;9.90;;;8.90;;
462;SDS011;218;51.902;9.542;2022-09-28T08:51:14;9.87;;;9.03;;
462;SDS011;218;51.902;9.542;2022-09-28T08:53:44;9.07;;;8.37;;
462;SDS011;218;51.902;9.542;2022-09-28T08:56:20;9.97;;;9.07;;
462;SDS011;218;51.902;9.542;2022-09-28T08:58:51;9.20;;;8.40;;
462;SDS011;218;51.902;9.542;2022-09-28T09:01:22;8.00;;;7.30;;
462;SDS011;218;51.902;9.542;2022-09-28T09:03:51;8.50;;;7.00;;
462;SDS011;218;51.902;9.542;2022-09-28T09:06:19;7.60;;;7.00;;
462;SDS011;218;51.902;9.542;2022-09-28T09:08:57;7.30;;;6.70;;
462;SDS011;218;51.902;9.542;2022-09-28T09:11:29;6.40;;;6.00;;
462;SDS011;218;51.902;9.542;2022-09-28T09:14:06;7.43;;;6.83;;
462;SDS011;218;51.902;9.542;2022-09-28T09:16:57;8.07;;;7.37;;
462;SDS011;218;51.902;9.542;2022-09-28T09:19:34;9.27;;;6.80;;
462;SDS011;218;51.902;9.542;2022-09-28T09:22:14;7.60;;;6.90;;
462;SDS011;218;51.902;9.542;2022-09-28T09:24:46;8.47;;;7.50;;
462;SDS011;218;51.902;9.542;2022-09-28T09:27:17;8.07;;;7.30;;
462;SDS011;218;51.902;9.542;2022-09-28T09:29:51;7.80;;;7.00;;
462;SDS011;218;51.902;9.542;2022-09-28T09:32:30;6.47;;;5.97;;
462;SDS011;218;51.902;9.542;2022-09-28T09:35:06;8.93;;;7.40;;
462;SDS011;218;51.902;9.542;2022-09-28T09:37:48;7.63;;;6.93;;
462;SDS011;218;51.902;9.542;2022-09-28T09:40:21;6.83;;;6.30;;
462;SDS011;218;51.902;9.542;2022-09-28T09:42:54;7.10;;;6.60;;
462;SDS011;218;51.902;9.542;2022-09-28T09:45:27;6.30;;;5.80;;
462;SDS011;218;51.902;9.542;2022-09-28T09:47:57;7.20;;;6.60;;
462;SDS011;218;51.902;9.542;2022-09-28T09:50:28;8.37;;;6.57;;
462;SDS011;218;51.902;9.542;2022-09-28T09:52:57;8.07;;;7.47;;
462;SDS011;218;51.902;9.542;2022-09-28T09:55:26;6.70;;;6.20;;
462;SDS011;218;51.902;9.542;2022-09-28T09:57:58;7.47;;;6.63;;
462;SDS011;218;51.902;9.542;2022-09-28T10:00:26;6.60;;;6.10;;
462;SDS011;218;51.902;9.542;2022-09-28T10:02:54;8.00;;;6.10;;
462;SDS011;218;51.902;9.542;2022-09-28T10:05:28;6.43;;;5.93;;
462;SDS011;218;51.902;9.542;2022-09-28T10:07:59;8.57;;;6.53;;
462;SDS011;218;51.902;9.542;2022-09-28T10:10:28;6.60;;;6.07;;
462;SDS011;218;51.902;9.542;2022-09-28T10:12:55;6.73;;;6.23;;
462;SDS011;218;51.902;9.542;2022-09-28T10:15:23;6.57;;;6.03;;
462;SDS011;218;51.902;9.542;2022-09-28T10:17:51;6.60;;;6.10;;
462;SDS011;218;51.902;9.542;2022-09-28T10:20:19;7.77;;;7.10;;
462;SDS011;218;51.902;9.542;2022-09-28T10:22:48;7.50;;;6.73;;
462;SDS011;218;51.902;9.542;2022-09-28T10:25:25;7.40;;;6.80;;
462;SDS011;218;51.902;9.542;2022-09-28T10:28:04;7.43;;;6.93;;
462;SDS011;218;51.902;9.542;2022-09-28T10:30:33;8.90;;;8.20;;
462;SDS011;218;51.902;9.542;2022-09-28T10:33:25;9.00;;;8.20;;
462;SDS011;218;51.902;9.542;2022-09-28T10:35:53;7.23;;;6.63;;
462;SDS011;218;51.902;9.542;2022-09-28T10:38:22;6.20;;;5.80;;
462;SDS011;218;51.902;9.542;2022-09-28T10:40:49;5.03;;;4.63;;
462;SDS011;218;51.902;9.542;2022-09-28T10:43:19;4.90;;;4.60;;
462;SDS011;218;51.902;9.542;2022-09-28T10:45:58;5.90;;;5.50;;
462;SDS011;218;51.902;9.542;2022-09-28T10:48:25;5.00;;;4.70;;
462;SDS011;218;51.902;9.542;2022-09-28T10:50:58;5.07;;;4.67;;
462;SDS011;218;51.902;9.542;2022-09-28T10:53:27;5.00;;;4.70;;
462;SDS011;218;51.902;9.542;2022-09-28T10:55:55;4.90;;;4.60;;
462;SDS011;218;51.902;9.542;2022-09-28T10:58:24;5.80;;;5.40;;
462;SDS011;218;51.902;9.542;2022-09-28T11:00:57;5.83;;;5.43;;
462;SDS011;218;51.902;9.542;2022-09-28T11:03:26;6.30;;;5.80;;
462;SDS011;218;51.902;9.542;2022-09-28T11:05:58;6.53;;;6.13;;
462;SDS011;218;51.902;9.542;2022-09-28T11:08:35;6.07;;;5.57;;
462;SDS011;218;51.902;9.542;2022-09-28T11:11:05;6.63;;;5.90;;
462;SDS011;218;51.902;9.542;2022-09-28T11:13:42;6.07;;;5.60;;
462;SDS011;218;51.902;9.542;2022-09-28T11:19:02;6.67;;;6.13;;
462;SDS011;218;51.902;9.542;2022-09-28T11:21:39;8.70;;;7.90;;
462;SDS011;218;51.902;9.542;2022-09-28T11:24:16;7.73;;;6.80;;
462;SDS011;218;51.902;9.542;2022-09-28T11:26:45;7.23;;;6.53;;
462;SDS011;218;51.902;9.542;2022-09-28T11:29:20;6.50;;;6.00;;
462;SDS011;218;51.902;9.542;2022-09-28T11:31:48;7.60;;;6.90;;
462;SDS011;218;51.902;9.542;2022-09-28T11:34:19;7.13;;;6.53;;
462;SDS011;218;51.902;9.542;2022-09-28T11:37:03;7.50;;;6.80;;
462;SDS011;218;51.902;9.542;2022-09-28T11:39:49;7.20;;;6.70;;
462;SDS011;218;51.902;9.542;2022-09-28T11:42:24;8.37;;;7.70;;
462;SDS011;218;51.902;9.542;2022-09-28T11:45:01;7.80;;;7.20;;
462;SDS011;218;51.902;9.542;2022-09-28T11:47:40;7.53;;;7.03;;
462;SDS011;218;51.902;9.542;2022-09-28T11:50:14;8.47;;;7.80;;
462;SDS011;218;51.902;9.542;2022-09-28T11:52:45;7.00;;;6.50;;
462;SDS011;218;51.902;9.542;2022-09-28T11:55:23;7.00;;;6.40;;
462;SDS011;218;51.902;9.542;2022-09-28T11:57:53;6.87;;;6.30;;
462;SDS011;218;51.902;9.542;2022-09-28T12:00:22;7.30;;;6.70;;
462;SDS011;218;51.902;9.542;2022-09-28T12:02:50;7.90;;;7.30;;
462;SDS011;218;51.902;9.542;2022-09-28T12:05:24;7.30;;;6.80;;
462;SDS011;218;51.902;9.542;2022-09-28T12:07:55;7.13;;;6.53;;
462;SDS011;218;51.902;9.542;2022-09-28T12:10:31;7.70;;;7.10;;
462;SDS011;218;51.902;9.542;2022-09-28T12:12:59;6.60;;;6.17;;
462;SDS011;218;51.902;9.542;2022-09-28T12:15:39;6.57;;;6.03;;
462;SDS011;218;51.902;9.542;2022-09-28T12:18:11;7.07;;;6.40;;
462;SDS011;218;51.902;9.542;2022-09-28T12:20:45;7.40;;;6.80;;
462;SDS011;218;51.902;9.542;2022-09-28T12:23:17;6.50;;;6.00;;
462;SDS011;218;51.902;9.542;2022-09-28T12:25:48;8.37;;;7.07;;
462;SDS011;218;51.902;9.542;2022-09-28T12:28:23;5.93;;;5.53;;
462;SDS011;218;51.902;9.542;2022-09-28T12:30:59;7.17;;;6.67;;
462;SDS011;218;51.902;9.542;2022-09-28T12:33:51;6.40;;;5.80;;
462;SDS011;218;51.902;9.542;2022-09-28T12:36:22;7.00;;;6.40;;
462;SDS011;218;51.902;9.542;2022-09-28T12:39:01;6.70;;;5.93;;
462;SDS011;218;51.902;9.542;2022-09-28T12:41:35;6.20;;;5.80;;
462;SDS011;218;51.902;9.542;2022-09-28T12:44:25;6.23;;;5.80;;
462;SDS011;218;51.902;9.542;2022-09-28T12:47:04;6.90;;;6.30;;
462;SDS011;218;51.902;9.542;2022-09-28T12:49:52;6.40;;;6.00;;
462;SDS011;218;51.902;9.542;2022-09-28T12:52:28;5.67;;;5.30;;
462;SDS011;218;51.902;9.542;2022-09-28T12:55:06;6.23;;;5.83;;
462;SDS011;218;51.902;9.542;2022-09-28T12:57:40;5.90;;;5.50;;
462;SDS011;218;51.902;9.542;2022-09-28T13:00:09;5.30;;;5.00;;
462;SDS011;218;51.902;9.542;2022-09-28T13:02:40;6.87;;;6.27;;
462;SDS011;218;51.902;9.542;2022-09-28T13:05:34;11.00;;;10.00;;
462;SDS011;218;51.902;9.542;2022-09-28T13:08:06;11.80;;;10.90;;
462;SDS011;218;51.902;9.542;2022-09-28T13:10:38;11.47;;;10.57;;
462;SDS011;218;51.902;9.542;2022-09-28T13:13:18;7.50;;;7.00;;
462;SDS011;218;51.902;9.542;2022-09-28T13:15:52;6.97;;;6.47;;
462;SDS011;218;51.902;9.542;2022-09-28T13:18:23;5.87;;;5.37;;
462;SDS011;218;51.902;9.542;2022-09-28T13:20:56;6.07;;;5.57;;
462;SDS011;218;51.902;9.542;2022-09-28T13:23:28;5.90;;;5.50;;
462;SDS011;218;51.902;9.542;2022-09-28T13:25:58;5.27;;;4.80;;
462;SDS011;218;51.902;9.542;2022-09-28T13:28:30;5.77;;;5.43;;
462;SDS011;218;51.902;9.542;2022-09-28T13:30:57;6.07;;;5.60;;
462;SDS011;218;51.902;9.542;2022-09-28T13:33:28;4.77;;;4.47;;
462;SDS011;218;51.902;9.542;2022-09-28T13:36:01;5.57;;;5.17;;
462;SDS011;218;51.902;9.542;2022-09-28T13:41:21;4.90;;;4.60;;
462;SDS011;218;51.902;9.542;2022-09-28T13:47:06;6.07;;;5.67;;
462;SDS011;218;51.902;9.542;2022-09-28T13:49:53;5.07;;;4.77;;
462;SDS011;218;51.902;9.542;2022-09-28T13:52:34;4.70;;;4.40;;
462;SDS011;218;51.902;9.542;2022-09-28T13:55:19;4.83;;;4.53;;
462;SDS011;218;51.902;9.542;2022-09-28T13:57:55;4.70;;;4.40;;
462;SDS011;218;51.902;9.542;2022-09-28T14:00:30;4.87;;;4.63;;
462;SDS011;218;51.902;9.542;2022-09-28T14:03:10;5.37;;;4.87;;
462;SDS011;218;51.902;9.542;2022-09-28T14:05:46;5.23;;;4.93;;
462;SDS011;218;51.902;9.542;2022-09-28T14:08:24;5.40;;;4.77;;
462;SDS011;218;51.902;9.542;2022-09-28T14:10:55;5.23;;;4.90;;
462;SDS011;218;51.902;9.542;2022-09-28T14:16:28;5.25;;;4.88;;
462;SDS011;218;51.902;9.542;2022-09-28T14:18:58;4.50;;;4.20;;
462;SDS011;218;51.902;9.542;2022-09-28T14:25:01;4.10;;;3.80;;
462;SDS011;218;51.902;9.542;2022-09-28T14:27:44;4.50;;;4.20;;
462;SDS011;218;51.902;9.542;2022-09-28T14:30:44;4.60;;;4.30;;
462;SDS011;218;51.902;9.542;2022-09-28T14:33:20;3.90;;;3.70;;
462;SDS011;218;51.902;9.542;2022-09-28T14:35:50;4.80;;;4.23;;
462;SDS011;218;51.902;9.542;2022-09-28T14:38:22;4.43;;;3.90;;
462;SDS011;218;51.902;9.542;2022-09-28T14:41:09;4.43;;;4.20;;
462;SDS011;218;51.902;9.542;2022-09-28T14:44:00;4.47;;;4.17;;
462;SDS011;218;51.902;9.542;2022-09-28T14:46:35;4.07;;;3.87;;
462;SDS011;218;51.902;9.542;2022-09-28T14:55:16;3.53;;;3.33;;
462;SDS011;218;51.902;9.542;2022-09-28T14:57:51;4.10;;;3.90;;
462;SDS011;218;51.902;9.542;2022-09-28T15:00:21;3.57;;;3.37;;
462;SDS011;218;51.902;9.542;2022-09-28T15:03:11;3.70;;;3.50;;
462;SDS011;218;51.902;9.542;2022-09-28T15:05:42;3.90;;;3.50;;
462;SDS011;218;51.902;9.542;2022-09-28T15:08:11;3.90;;;3.63;;
462;SDS011;218;51.902;9.542;2022-09-28T15:10:43;3.63;;;3.43;;
462;SDS011;218;51.902;9.542;2022-09-28T15:13:18;4.13;;;3.93;;
462;SDS011;218;51.902;9.542;2022-09-28T15:15:47;3.13;;;2.93;;
462;SDS011;218;51.902;9.542;2022-09-28T15:18:19;4.40;;;4.20;;
462;SDS011;218;51.902;9.542;2022-09-28T15:20:52;4.10;;;3.80;;
462;SDS011;218;51.902;9.542;2022-09-28T15:23:25;3.80;;;3.60;;
462;SDS011;218;51.902;9.542;2022-09-28T15:26:02;3.40;;;3.20;;
462;SDS011;218;51.902;9.542;2022-09-28T15:28:33;2.77;;;2.67;;
462;SDS011;218;51.902;9.542;2022-09-28T15:31:03;2.67;;;2.50;;
462;SDS011;218;51.902;9.542;2022-09-28T15:33:31;2.77;;;2.57;;
462;SDS011;218;51.902;9.542;2022-09-28T15:36:18;2.77;;;2.67;;
462;SDS011;218;51.902;9.542;2022-09-28T15:38:50;3.03;;;2.83;;
462;SDS011;218;51.902;9.542;2022-09-28T15:41:23;2.40;;;2.30;;
462;SDS011;218;51.902;9.542;2022-09-28T15:44:04;2.37;;;2.27;;
462;SDS011;218;51.902;9.542;2022-09-28T15:47:03;2.70;;;2.60;;
462;SDS011;218;51.902;9.542;2022-09-28T15:49:40;2.33;;;2.23;;
462;SDS011;218;51.902;9.542;2022-09-28T15:54:51;2.63;;;2.50;;
462;SDS011;218;51.902;9.542;2022-09-28T15:57:29;2.37;;;2.27;;
462;SDS011;218;51.902;9.542;2022-09-28T16:00:00;2.43;;;2.33;;
462;SDS011;218;51.902;9.542;2022-09-28T16:02:27;2.90;;;2.70;;
462;SDS011;218;51.902;9.542;2022-09-28T16:04:55;2.50;;;2.40;;
462;SDS011;218;51.902;9.542;2022-09-28T16:07:27;2.73;;;2.63;;
462;SDS011;218;51.902;9.542;2022-09-28T16:09:59;2.80;;;2.60;;
462;SDS011;218;51.902;9.542;2022-09-28T16:12:31;3.33;;;3.13;;
462;SDS011;218;51.902;9.542;2022-09-28T16:15:09;2.60;;;2.50;;
462;SDS011;218;51.902;9.542;2022-09-28T16:17:42;2.50;;;2.40;;
462;SDS011;218;51.902;9.542;2022-09-28T16:20:19;3.17;;;3.07;;
462;SDS011;218;51.902;9.542;2022-09-28T16:22:48;2.60;;;2.50;;
462;SDS011;218;51.902;9.542;2022-09-28T16:25:18;3.80;;;3.47;;
462;SDS011;218;51.902;9.542;2022-09-28T16:27:49;3.27;;;3.07;;
462;SDS011;218;51.902;9.542;2022-09-28T16:30:18;2.90;;;2.70;;
462;SDS011;218;51.902;9.542;2022-09-28T16:32:49;4.80;;;3.00;;
462;SDS011;218;51.902;9.542;2022-09-28T16:35:19;2.80;;;2.60;;
462;SDS011;218;51.902;9.542;2022-09-28T16:37:47;4.07;;;3.77;;